createdAt,value
2023-04-11T00:00:16.667Z,6.68
2023-04-11T00:02:44.743Z,6.85
2023-04-11T00:05:12.173Z,6.22
2023-04-11T00:07:39.744Z,6.72
2023-04-11T00:10:07.930Z,6.80
2023-04-11T00:12:34.988Z,6.75
2023-04-11T00:15:02.197Z,7.88
2023-04-11T00:17:31.488Z,7.13
2023-04-11T00:20:01.326Z,6.78
2023-04-11T00:22:30.240Z,7.82
2023-04-11T00:24:57.654Z,6.93
2023-04-11T00:27:25.182Z,6.55
2023-04-11T00:29:57.615Z,5.97
2023-04-11T00:32:25.084Z,6.45
2023-04-11T00:34:52.600Z,7.63
2023-04-11T00:37:22.222Z,9.32
2023-04-11T00:39:55.720Z,9.32
2023-04-11T00:42:23.104Z,8.70
2023-04-11T00:44:51.024Z,8.40
2023-04-11T00:47:19.052Z,8.35
2023-04-11T00:49:46.369Z,9.00
2023-04-11T00:52:13.537Z,8.63
2023-04-11T00:54:41.068Z,9.30
2023-04-11T00:57:08.617Z,9.75
2023-04-11T00:59:36.268Z,11.95
2023-04-11T01:02:03.461Z,11.40
2023-04-11T01:04:30.538Z,11.05
2023-04-11T01:07:04.056Z,10.75
2023-04-11T01:09:32.978Z,10.55
2023-04-11T01:12:01.118Z,14.25
2023-04-11T01:14:28.499Z,14.65
2023-04-11T01:17:02.306Z,16.75
2023-04-11T01:19:30.572Z,17.17
2023-04-11T01:21:58.253Z,15.95
2023-04-11T01:24:25.735Z,16.65
2023-04-11T01:26:53.277Z,15.77
2023-04-11T01:29:21.251Z,14.93
2023-04-11T01:31:49.632Z,13.82
2023-04-11T01:34:17.594Z,15.27
2023-04-11T01:36:44.647Z,14.98
2023-04-11T01:39:11.940Z,15.20
2023-04-11T01:41:39.613Z,13.23
2023-04-11T01:44:06.994Z,10.52
2023-04-11T01:46:34.525Z,11.02
2023-04-11T01:49:02.412Z,11.70
2023-04-11T01:51:29.836Z,12.63
2023-04-11T01:53:57.246Z,12.98
2023-04-11T01:56:24.625Z,13.10
2023-04-11T01:58:51.776Z,13.75
2023-04-11T02:01:20.015Z,12.60
2023-04-11T02:03:47.777Z,11.15
2023-04-11T02:06:15.832Z,7.85
2023-04-11T02:08:45.985Z,7.32
2023-04-11T02:11:13.728Z,5.57
2023-04-11T02:13:40.796Z,4.47
2023-04-11T02:16:10.029Z,4.70
2023-04-11T02:18:37.353Z,3.35
2023-04-11T02:21:05.590Z,3.60
2023-04-11T02:23:33.681Z,3.83
2023-04-11T02:26:01.772Z,4.28
2023-04-11T02:28:29.584Z,2.67
2023-04-11T02:30:57.111Z,2.92
2023-04-11T02:33:24.226Z,3.38
2023-04-11T02:35:51.958Z,3.30
2023-04-11T02:38:19.513Z,6.53
2023-04-11T02:40:46.716Z,6.43
2023-04-11T02:43:14.244Z,7.07
2023-04-11T02:45:41.904Z,8.25
2023-04-11T02:48:10.718Z,6.50
2023-04-11T02:50:43.256Z,7.95
2023-04-11T02:53:11.599Z,6.70
2023-04-11T02:55:45.743Z,5.05
2023-04-11T02:58:17.702Z,3.03
2023-04-11T03:00:48.931Z,2.65
2023-04-11T03:03:16.957Z,2.10
2023-04-11T03:05:46.809Z,1.75
2023-04-11T03:08:16.913Z,1.67
2023-04-11T03:10:50.399Z,2.42
2023-04-11T03:13:17.754Z,1.77
2023-04-11T03:15:45.473Z,2.50
2023-04-11T03:18:13.838Z,2.78
2023-04-11T03:20:45.406Z,2.78
2023-04-11T03:23:15.314Z,2.70
2023-04-11T03:25:44.271Z,2.25
2023-04-11T03:28:12.503Z,2.50
2023-04-11T03:30:40.879Z,2.60
2023-04-11T03:33:09.920Z,2.45
2023-04-11T03:35:37.174Z,2.15
2023-04-11T03:38:04.459Z,2.60
2023-04-11T03:40:31.906Z,2.20
2023-04-11T03:43:19.440Z,2.38
2023-04-11T03:45:47.172Z,2.30
2023-04-11T03:48:26.396Z,2.50
2023-04-11T03:51:04.564Z,2.42
2023-04-11T03:53:52.346Z,1.98
2023-04-11T03:56:40.561Z,2.22
2023-04-11T03:59:14.313Z,2.08
2023-04-11T04:01:55.900Z,2.05
2023-04-11T04:04:23.288Z,1.60
2023-04-11T04:07:02.284Z,1.65
2023-04-11T04:09:36.560Z,1.50
2023-04-11T04:12:04.760Z,2.13
2023-04-11T04:15:01.364Z,1.30
2023-04-11T04:17:28.667Z,2.20
2023-04-11T04:19:56.480Z,1.42
2023-04-11T04:22:26.290Z,1.42
2023-04-11T04:24:57.890Z,1.60
2023-04-11T04:27:30.603Z,1.80
2023-04-11T04:30:01.702Z,2.83
2023-04-11T04:32:54.372Z,2.03
2023-04-11T04:35:23.004Z,2.05
2023-04-11T04:37:50.682Z,1.80
2023-04-11T04:40:31.711Z,1.70
2023-04-11T04:43:08.824Z,1.85
2023-04-11T04:45:42.171Z,2.08
2023-04-11T04:48:10.222Z,1.90
2023-04-11T04:50:38.287Z,1.63
2023-04-11T04:53:06.820Z,1.05
2023-04-11T04:55:35.890Z,1.38
2023-04-11T04:58:03.839Z,2.42
2023-04-11T05:00:31.288Z,2.35
2023-04-11T05:03:05.270Z,1.58
2023-04-11T05:05:33.278Z,1.88
2023-04-11T05:08:01.022Z,2.03
2023-04-11T05:10:29.715Z,1.20
2023-04-11T05:12:56.788Z,3.33
2023-04-11T05:15:24.463Z,1.35
2023-04-11T05:17:51.674Z,2.13
2023-04-11T05:20:20.032Z,1.75
2023-04-11T05:22:49.991Z,1.13
2023-04-11T05:25:18.849Z,1.30
2023-04-11T05:27:46.487Z,1.98
2023-04-11T05:30:14.386Z,1.15
2023-04-11T05:32:42.840Z,1.35
2023-04-11T05:35:10.772Z,1.80
2023-04-11T05:37:51.490Z,1.73
2023-04-11T05:40:19.046Z,1.80
2023-04-11T05:42:46.147Z,1.80
2023-04-11T05:45:13.548Z,1.70
2023-04-11T05:47:41.318Z,1.50
2023-04-11T05:50:10.053Z,2.45
2023-04-11T05:52:37.199Z,2.05
2023-04-11T05:55:05.724Z,1.30
2023-04-11T05:57:33.082Z,2.17
2023-04-11T06:00:02.095Z,1.40
2023-04-11T06:02:41.620Z,1.75
2023-04-11T06:05:11.462Z,1.67
2023-04-11T06:07:39.368Z,1.95
2023-04-11T06:10:07.605Z,2.88
2023-04-11T06:12:34.767Z,2.28
2023-04-11T06:15:02.322Z,2.45
2023-04-11T06:17:29.800Z,1.60
2023-04-11T06:19:56.817Z,1.92
2023-04-11T06:22:24.208Z,1.60
2023-04-11T06:24:52.055Z,1.75
2023-04-11T06:27:19.212Z,1.63
2023-04-11T06:29:46.694Z,2.65
2023-04-11T06:32:13.739Z,2.83
2023-04-11T06:34:41.379Z,2.03
2023-04-11T06:37:08.938Z,1.60
2023-04-11T06:39:36.028Z,1.65
2023-04-11T06:42:03.505Z,1.63
2023-04-11T06:44:32.872Z,1.90
2023-04-11T06:47:00.070Z,1.52
2023-04-11T06:49:28.570Z,1.75
2023-04-11T06:51:55.845Z,2.90
2023-04-11T06:54:23.432Z,1.70
2023-04-11T06:56:51.526Z,1.73
2023-04-11T06:59:20.037Z,2.30
2023-04-11T07:01:47.392Z,1.65
2023-04-11T07:04:14.971Z,1.85
2023-04-11T07:06:42.512Z,2.28
2023-04-11T07:09:09.840Z,2.58
2023-04-11T07:11:38.709Z,2.53
2023-04-11T07:14:06.003Z,2.88
2023-04-11T07:16:33.369Z,3.83
2023-04-11T07:19:00.623Z,3.85
2023-04-11T07:21:28.412Z,3.42
2023-04-11T07:23:56.438Z,4.10
2023-04-11T07:26:24.033Z,3.25
2023-04-11T07:28:51.073Z,2.47
2023-04-11T07:31:21.681Z,2.47
2023-04-11T07:33:49.062Z,3.28
2023-04-11T07:36:16.656Z,2.78
2023-04-11T07:38:44.011Z,3.80
2023-04-11T07:41:11.040Z,3.13
2023-04-11T07:43:38.297Z,3.00
2023-04-11T07:46:06.699Z,2.28
2023-04-11T07:48:34.066Z,2.90
2023-04-11T07:51:01.314Z,3.08
2023-04-11T07:53:30.895Z,2.42
2023-04-11T07:55:58.287Z,3.10
2023-04-11T07:58:25.366Z,2.78
2023-04-11T08:00:53.332Z,2.83
2023-04-11T08:03:20.935Z,2.40
2023-04-11T08:05:48.154Z,3.15
2023-04-11T08:08:16.319Z,2.03
2023-04-11T08:10:43.590Z,2.92
2023-04-11T08:13:11.322Z,2.53
2023-04-11T08:15:38.750Z,3.30
2023-04-11T08:18:06.456Z,3.78
2023-04-11T08:20:33.518Z,3.00
2023-04-11T08:23:06.178Z,6.20
2023-04-11T08:25:33.756Z,8.02
2023-04-11T08:28:01.100Z,5.25
2023-04-11T08:30:28.283Z,4.78
2023-04-11T08:32:55.720Z,5.22
2023-04-11T08:35:23.401Z,5.18
2023-04-11T08:37:51.046Z,4.25
2023-04-11T08:40:18.304Z,5.38
2023-04-11T08:42:45.742Z,2.53
2023-04-11T08:45:13.405Z,2.85
2023-04-11T08:47:41.981Z,3.75
2023-04-11T08:50:11.249Z,2.53
2023-04-11T08:52:39.180Z,1.90
2023-04-11T08:55:06.526Z,2.85
2023-04-11T08:57:37.760Z,2.97
2023-04-11T09:00:19.195Z,3.00
2023-04-11T09:03:03.416Z,2.90
2023-04-11T09:05:32.213Z,2.70
2023-04-11T09:08:00.717Z,2.70
2023-04-11T09:10:28.198Z,3.78
2023-04-11T09:12:55.729Z,3.67
2023-04-11T09:15:28.729Z,1.70
2023-04-11T09:17:58.178Z,2.90
2023-04-11T09:20:30.345Z,2.72
2023-04-11T09:22:58.783Z,3.53
2023-04-11T09:25:26.191Z,2.50
2023-04-11T09:28:09.740Z,3.00
2023-04-11T09:30:37.268Z,3.30
2023-04-11T09:33:24.312Z,2.85
2023-04-11T09:35:53.442Z,3.00
2023-04-11T09:38:30.830Z,2.95
2023-04-11T09:40:59.293Z,2.65
2023-04-11T09:43:27.152Z,4.75
2023-04-11T09:46:11.554Z,2.53
2023-04-11T09:48:46.658Z,2.95
2023-04-11T09:51:24.398Z,4.07
2023-04-11T09:53:59.895Z,3.60
2023-04-11T09:56:30.982Z,2.78
2023-04-11T09:58:59.582Z,4.13
2023-04-11T10:01:27.530Z,1.92
2023-04-11T10:03:55.620Z,1.67
2023-04-11T10:06:34.014Z,2.10
2023-04-11T10:09:12.003Z,2.10
2023-04-11T10:11:43.500Z,1.90
2023-04-11T10:14:38.513Z,2.20
2023-04-11T10:17:19.780Z,1.85
2023-04-11T10:19:51.111Z,2.20
2023-04-11T10:22:43.534Z,2.55
2023-04-11T10:25:21.616Z,2.53
2023-04-11T10:27:50.426Z,1.77
2023-04-11T10:30:18.266Z,2.58
2023-04-11T10:33:10.603Z,2.42
2023-04-11T10:35:55.919Z,3.25
2023-04-11T10:38:43.062Z,2.40
2023-04-11T10:41:16.490Z,3.13
2023-04-11T10:43:44.342Z,2.85
2023-04-11T10:46:22.250Z,3.03
2023-04-11T10:49:03.744Z,2.95
2023-04-11T10:51:32.597Z,4.38
2023-04-11T10:54:00.529Z,3.20
2023-04-11T10:56:57.642Z,2.13
2023-04-11T10:59:36.288Z,3.63
2023-04-11T11:02:03.635Z,3.65
2023-04-11T11:04:35.024Z,3.08
2023-04-11T11:07:04.303Z,4.22
2023-04-11T11:09:31.674Z,3.35
2023-04-11T11:12:12.187Z,4.10
2023-04-11T11:14:40.890Z,4.28
2023-04-11T11:17:08.989Z,3.00
2023-04-11T11:19:36.693Z,3.72
2023-04-11T11:22:04.445Z,4.47
2023-04-11T11:24:31.965Z,4.88
2023-04-11T11:26:59.502Z,10.70
2023-04-11T11:29:35.742Z,8.60
2023-04-11T11:32:03.569Z,5.53
2023-04-11T11:34:32.915Z,6.43
2023-04-11T11:37:01.560Z,5.38
2023-04-11T11:39:29.691Z,3.60
2023-04-11T11:41:57.482Z,3.40
2023-04-11T11:44:28.940Z,4.47
2023-04-11T11:47:06.929Z,5.80
2023-04-11T11:49:44.839Z,5.32
2023-04-11T11:52:13.177Z,4.35
2023-04-11T11:54:45.224Z,4.38
2023-04-11T11:57:20.052Z,3.80
2023-04-11T11:59:53.649Z,4.63
2023-04-11T12:02:23.555Z,4.47
2023-04-11T12:04:51.453Z,4.07
2023-04-11T12:07:22.892Z,3.60
2023-04-11T12:09:50.864Z,3.40
2023-04-11T12:12:19.171Z,3.90
2023-04-11T12:14:53.850Z,3.95
2023-04-11T12:17:21.139Z,4.35
2023-04-11T12:19:48.304Z,5.43
2023-04-11T12:22:15.722Z,6.45
2023-04-11T12:24:43.157Z,7.20
2023-04-11T12:27:12.550Z,7.55
2023-04-11T12:29:39.644Z,6.80
2023-04-11T12:32:06.970Z,7.90
2023-04-11T12:34:34.034Z,8.07
2023-04-11T12:37:01.519Z,6.70
2023-04-11T12:39:29.299Z,6.10
2023-04-11T12:41:59.737Z,4.22
2023-04-11T12:44:27.453Z,3.65
2023-04-11T12:46:54.621Z,4.03
2023-04-11T12:49:22.277Z,3.83
2023-04-11T12:51:49.760Z,4.50
2023-04-11T12:54:17.213Z,5.40
2023-04-11T12:56:44.441Z,4.90
2023-04-11T12:59:11.600Z,6.00
2023-04-11T13:01:38.810Z,6.75
2023-04-11T13:04:06.770Z,9.32
2023-04-11T13:06:34.113Z,10.43
2023-04-11T13:09:02.038Z,9.80
2023-04-11T13:11:29.651Z,10.75
2023-04-11T13:13:57.066Z,8.25
2023-04-11T13:16:24.657Z,8.27
2023-04-11T13:18:51.909Z,7.43
2023-04-11T13:21:19.441Z,6.95
2023-04-11T13:23:46.510Z,7.32
2023-04-11T13:26:13.868Z,7.70
2023-04-11T13:28:40.947Z,8.10
2023-04-11T13:31:11.219Z,5.50
2023-04-11T13:33:41.664Z,5.53
2023-04-11T13:36:10.032Z,5.88
2023-04-11T13:38:38.664Z,6.88
2023-04-11T13:41:06.532Z,7.97
2023-04-11T13:43:33.873Z,8.23
2023-04-11T13:46:01.318Z,9.27
2023-04-11T13:48:28.232Z,8.15
2023-04-11T13:50:57.616Z,5.25
2023-04-11T13:53:24.791Z,4.78
2023-04-11T13:55:52.142Z,4.30
2023-04-11T13:58:19.441Z,3.58
2023-04-11T14:00:46.650Z,3.65
2023-04-11T14:03:14.310Z,4.50
2023-04-11T14:05:41.829Z,3.75
2023-04-11T14:08:09.259Z,4.30
2023-04-11T14:10:36.654Z,3.85
2023-04-11T14:13:05.147Z,5.28
2023-04-11T14:15:32.980Z,5.50
2023-04-11T14:18:01.633Z,5.32
2023-04-11T14:20:28.886Z,4.25
2023-04-11T14:22:56.901Z,4.05
2023-04-11T14:25:23.861Z,3.97
2023-04-11T14:27:51.277Z,4.03
2023-04-11T14:30:18.676Z,4.05
2023-04-11T14:32:46.576Z,3.88
2023-04-11T14:35:14.280Z,4.75
2023-04-11T14:37:41.406Z,4.80
2023-04-11T14:40:10.945Z,4.43
2023-04-11T14:42:39.247Z,5.47
2023-04-11T14:45:07.664Z,4.60
2023-04-11T14:47:35.352Z,4.13
2023-04-11T14:50:02.512Z,6.40
2023-04-11T14:52:29.573Z,7.63
2023-04-11T14:54:56.683Z,7.68
2023-04-11T14:57:24.063Z,9.05
2023-04-11T14:59:51.389Z,8.80
2023-04-11T15:02:19.131Z,6.55
2023-04-11T15:04:46.651Z,6.55
2023-04-11T15:07:14.885Z,7.10
2023-04-11T15:09:42.796Z,6.10
2023-04-11T15:12:10.460Z,6.03
2023-04-11T15:14:37.660Z,6.20
2023-04-11T15:17:05.549Z,5.50
2023-04-11T15:19:32.598Z,6.00
2023-04-11T15:22:00.138Z,5.57
2023-04-11T15:24:27.369Z,6.28
2023-04-11T15:26:54.537Z,6.70
2023-04-11T15:29:21.598Z,6.82
2023-04-11T15:31:49.644Z,8.93
2023-04-11T15:34:16.730Z,6.63
2023-04-11T15:36:44.967Z,6.32
2023-04-11T15:39:12.696Z,5.85
2023-04-11T15:41:40.993Z,5.80
2023-04-11T15:44:08.025Z,4.80
2023-04-11T15:46:35.790Z,4.95
2023-04-11T15:49:03.534Z,4.15
2023-04-11T15:51:30.970Z,3.42
2023-04-11T15:53:58.316Z,3.22
2023-04-11T15:56:26.159Z,2.00
2023-04-11T15:58:53.511Z,3.50
2023-04-11T16:01:22.571Z,5.72
2023-04-11T16:03:50.072Z,6.05
2023-04-11T16:06:20.682Z,5.13
2023-04-11T16:08:47.857Z,3.47
2023-04-11T16:11:15.051Z,2.47
2023-04-11T16:13:43.825Z,3.50
2023-04-11T16:16:11.142Z,3.50
2023-04-11T16:18:38.752Z,2.63
2023-04-11T16:21:12.504Z,2.17
2023-04-11T16:23:39.686Z,2.65
2023-04-11T16:26:07.080Z,2.60
2023-04-11T16:28:34.113Z,2.40
2023-04-11T16:31:01.422Z,2.35
2023-04-11T16:33:28.851Z,2.17
2023-04-11T16:35:56.788Z,2.20
2023-04-11T16:38:24.262Z,2.17
2023-04-11T16:40:51.463Z,2.17
2023-04-11T16:43:18.681Z,2.10
2023-04-11T16:45:46.064Z,2.30
2023-04-11T16:48:13.414Z,2.10
2023-04-11T16:50:41.124Z,2.17
2023-04-11T16:53:08.370Z,1.50
2023-04-11T16:55:35.753Z,1.90
2023-04-11T16:58:03.011Z,1.80
2023-04-11T17:00:30.442Z,1.98
2023-04-11T17:02:58.725Z,2.38
2023-04-11T17:05:26.121Z,2.78
2023-04-11T17:07:53.733Z,3.33
2023-04-11T17:10:21.194Z,2.47
2023-04-11T17:12:48.471Z,3.33
2023-04-11T17:15:16.084Z,2.13
2023-04-11T17:17:44.120Z,1.92
2023-04-11T17:20:11.955Z,1.65
2023-04-11T17:22:41.076Z,1.48
2023-04-11T17:25:09.749Z,1.17
2023-04-11T17:27:37.466Z,1.20
2023-04-11T17:30:05.360Z,1.15
2023-04-11T17:32:34.726Z,1.63
2023-04-11T17:35:04.740Z,1.48
2023-04-11T17:37:32.427Z,1.70
2023-04-11T17:40:00.381Z,2.00
2023-04-11T17:42:27.797Z,2.10
2023-04-11T17:44:57.149Z,1.50
2023-04-11T17:47:26.504Z,1.63
2023-04-11T17:49:54.697Z,1.45
2023-04-11T17:52:22.073Z,1.52
2023-04-11T17:54:49.651Z,1.45
2023-04-11T17:57:18.188Z,1.42
2023-04-11T17:59:46.898Z,1.20
2023-04-11T18:02:14.030Z,1.30
2023-04-11T18:04:42.312Z,1.30
2023-04-11T18:07:09.845Z,1.13
2023-04-11T18:09:37.583Z,1.20
2023-04-11T18:12:05.156Z,1.75
2023-04-11T18:14:33.785Z,1.15
2023-04-11T18:17:00.905Z,1.17
2023-04-11T18:19:28.236Z,1.20
2023-04-11T18:21:56.060Z,1.00
2023-04-11T18:24:23.535Z,1.30
2023-04-11T18:26:51.232Z,1.15
2023-04-11T18:29:18.702Z,1.10
2023-04-11T18:31:46.457Z,1.30
2023-04-11T18:34:14.078Z,1.00
2023-04-11T18:36:42.036Z,0.30
2023-04-11T18:39:09.542Z,0.75
2023-04-11T18:41:36.846Z,0.70
2023-04-11T18:44:05.759Z,0.55
2023-04-11T18:46:35.025Z,0.43
2023-04-11T18:49:04.301Z,0.60
2023-04-11T18:51:32.173Z,0.60
2023-04-11T18:53:59.815Z,0.70
2023-04-11T18:56:26.917Z,0.90
2023-04-11T18:58:56.041Z,0.73
2023-04-11T19:01:26.356Z,0.90
2023-04-11T19:03:56.836Z,0.70
2023-04-11T19:06:24.794Z,0.70
2023-04-11T19:08:52.198Z,0.35
2023-04-11T19:11:19.684Z,0.68
2023-04-11T19:13:46.725Z,0.80
2023-04-11T19:16:14.458Z,1.00
2023-04-11T19:18:41.902Z,0.70
2023-04-11T19:21:09.027Z,0.50
2023-04-11T19:23:38.231Z,0.40
2023-04-11T19:26:05.865Z,0.60
2023-04-11T19:28:35.088Z,0.57
2023-04-11T19:31:02.734Z,0.90
2023-04-11T19:33:29.996Z,0.40
2023-04-11T19:35:57.413Z,0.40
2023-04-11T19:38:25.270Z,0.57
2023-04-11T19:40:52.483Z,0.20
2023-04-11T19:43:19.733Z,0.20
2023-04-11T19:45:47.204Z,0.38
2023-04-11T19:48:15.848Z,0.80
2023-04-11T19:50:42.840Z,0.50
2023-04-11T19:53:10.353Z,0.50
2023-04-11T19:55:37.351Z,0.50
2023-04-11T19:58:04.368Z,0.52
2023-04-11T20:00:35.871Z,0.47
2023-04-11T20:03:05.383Z,0.45
2023-04-11T20:05:33.077Z,0.20
2023-04-11T20:08:00.742Z,0.30
2023-04-11T20:10:28.478Z,0.57
2023-04-11T20:12:58.185Z,0.32
2023-04-11T20:15:25.391Z,0.22
2023-04-11T20:17:52.621Z,0.45
2023-04-11T20:20:19.976Z,0.77
2023-04-11T20:22:47.909Z,1.17
2023-04-11T20:25:15.271Z,0.57
2023-04-11T20:27:43.006Z,0.43
2023-04-11T20:30:10.715Z,0.40
2023-04-11T20:32:39.056Z,0.50
2023-04-11T20:35:08.335Z,0.28
2023-04-11T20:37:36.002Z,0.80
2023-04-11T20:40:07.395Z,0.88
2023-04-11T20:42:34.960Z,0.38
2023-04-11T20:45:10.502Z,0.90
2023-04-11T20:47:38.192Z,0.60
2023-04-11T20:50:10.475Z,0.40
2023-04-11T20:52:38.196Z,0.50
2023-04-11T20:55:05.868Z,0.60
2023-04-11T20:57:35.865Z,0.30
2023-04-11T21:00:13.586Z,0.55
2023-04-11T21:02:43.738Z,0.80
2023-04-11T21:05:11.781Z,0.93
2023-04-11T21:07:39.423Z,0.40
2023-04-11T21:10:07.516Z,0.52
2023-04-11T21:12:35.312Z,0.57
2023-04-11T21:15:03.979Z,0.70
2023-04-11T21:17:34.570Z,0.40
2023-04-11T21:20:09.798Z,0.82
2023-04-11T21:22:37.219Z,0.80
2023-04-11T21:25:04.706Z,0.50
2023-04-11T21:27:31.846Z,0.70
2023-04-11T21:29:59.038Z,0.68
2023-04-11T21:32:27.764Z,1.00
2023-04-11T21:34:55.408Z,0.52
2023-04-11T21:37:22.985Z,0.32
2023-04-11T21:39:50.676Z,1.00
2023-04-11T21:42:17.608Z,0.90
2023-04-11T21:44:45.325Z,0.50
2023-04-11T21:47:12.653Z,0.88
2023-04-11T21:49:39.647Z,0.98
2023-04-11T21:52:07.176Z,1.25
2023-04-11T21:54:34.565Z,0.60
2023-04-11T21:57:01.978Z,0.80
2023-04-11T21:59:29.490Z,0.98
2023-04-11T22:01:56.734Z,1.08
2023-04-11T22:04:24.231Z,1.40
2023-04-11T22:06:51.730Z,1.02
2023-04-11T22:09:20.046Z,1.20
2023-04-11T22:11:47.151Z,0.68
2023-04-11T22:14:16.442Z,0.75
2023-04-11T22:16:49.069Z,1.20
2023-04-11T22:19:20.496Z,1.50
2023-04-11T22:21:55.589Z,0.60
2023-04-11T22:24:29.914Z,0.50
2023-04-11T22:27:04.037Z,0.50
2023-04-11T22:29:33.912Z,0.80
2023-04-11T22:32:03.692Z,0.98
2023-04-11T22:34:30.959Z,0.68
2023-04-11T22:36:59.040Z,0.70
2023-04-11T22:39:26.198Z,1.10
2023-04-11T22:41:54.253Z,1.40
2023-04-11T22:44:21.904Z,1.38
2023-04-11T22:47:06.070Z,1.08
2023-04-11T22:49:40.196Z,0.80
2023-04-11T22:52:13.757Z,1.10
2023-04-11T22:54:41.733Z,1.10
2023-04-11T22:57:09.075Z,0.50
2023-04-11T22:59:36.575Z,0.65
2023-04-11T23:02:03.768Z,1.25
2023-04-11T23:04:31.689Z,1.02
2023-04-11T23:06:59.020Z,0.88
2023-04-11T23:09:27.794Z,1.02
2023-04-11T23:11:55.420Z,0.60
2023-04-11T23:14:23.969Z,0.90
2023-04-11T23:16:51.483Z,1.10
2023-04-11T23:19:19.004Z,1.02
2023-04-11T23:21:46.421Z,1.10
2023-04-11T23:24:13.868Z,0.50
2023-04-11T23:26:41.522Z,0.77
2023-04-11T23:29:09.417Z,0.95
2023-04-11T23:31:36.916Z,0.55
2023-04-11T23:34:04.423Z,0.90
2023-04-11T23:36:32.524Z,1.15
2023-04-11T23:39:02.187Z,1.10
2023-04-11T23:41:30.003Z,1.15
2023-04-11T23:43:57.429Z,1.23
2023-04-11T23:46:25.988Z,1.05
2023-04-11T23:48:53.659Z,1.52
2023-04-11T23:51:20.827Z,1.40
2023-04-11T23:53:48.243Z,1.20
2023-04-11T23:56:15.931Z,2.00
2023-04-11T23:58:43.023Z,1.80
